createdAt,value
2023-01-13T00:00:55.809Z,1.30
2023-01-13T00:01:55.816Z,1.30
2023-01-13T00:02:55.803Z,1.30
2023-01-13T00:03:55.806Z,1.50
2023-01-13T00:04:55.864Z,1.30
2023-01-13T00:05:55.759Z,1.40
2023-01-13T00:06:55.751Z,1.20
2023-01-13T00:07:55.754Z,1.20
2023-01-13T00:08:55.732Z,1.20
2023-01-13T00:09:55.725Z,1.40
2023-01-13T00:10:55.717Z,1.30
2023-01-13T00:11:55.716Z,1.30
2023-01-13T00:12:55.682Z,1.30
2023-01-13T00:13:55.700Z,1.20
2023-01-13T00:14:55.675Z,1.40
2023-01-13T00:15:55.725Z,1.80
2023-01-13T00:16:55.646Z,1.40
2023-01-13T00:17:55.647Z,1.40
2023-01-13T00:18:55.646Z,1.20
2023-01-13T00:19:55.609Z,1.30
2023-01-13T00:20:55.613Z,1.20
2023-01-13T00:21:55.607Z,1.40
2023-01-13T00:22:55.570Z,1.30
2023-01-13T00:23:55.574Z,1.20
2023-01-13T00:24:55.561Z,1.20
2023-01-13T00:25:55.563Z,1.40
2023-01-13T00:26:55.534Z,1.10
2023-01-13T00:27:55.526Z,1.10
2023-01-13T00:28:55.526Z,1.10
2023-01-13T00:29:55.500Z,1.10
2023-01-13T00:30:55.554Z,1.30
2023-01-13T00:31:55.469Z,1.00
2023-01-13T00:32:55.492Z,0.90
2023-01-13T00:33:55.449Z,1.00
2023-01-13T00:34:55.453Z,0.90
2023-01-13T00:35:55.450Z,0.70
2023-01-13T00:36:55.448Z,0.90
2023-01-13T00:37:55.429Z,0.60
2023-01-13T00:38:55.416Z,0.70
2023-01-13T00:39:55.387Z,0.70
2023-01-13T00:40:55.375Z,0.80
2023-01-13T00:41:55.367Z,0.70
2023-01-13T00:42:55.473Z,0.70
2023-01-13T00:43:55.374Z,0.70
2023-01-13T00:44:55.335Z,1.10
2023-01-13T00:45:55.340Z,0.60
2023-01-13T00:46:55.330Z,0.70
2023-01-13T00:47:55.298Z,0.60
2023-01-13T00:48:55.289Z,0.50
2023-01-13T00:49:55.286Z,0.80
2023-01-13T00:50:55.287Z,0.60
2023-01-13T00:51:55.251Z,0.60
2023-01-13T00:52:55.271Z,0.60
2023-01-13T00:53:55.248Z,0.60
2023-01-13T00:54:55.219Z,0.60
2023-01-13T00:55:55.215Z,0.70
2023-01-13T00:56:55.211Z,0.60
2023-01-13T00:57:55.195Z,0.90
2023-01-13T00:58:55.185Z,0.60
2023-01-13T00:59:55.182Z,0.90
2023-01-13T01:00:55.235Z,0.70
2023-01-13T01:01:55.244Z,0.70
2023-01-13T01:02:55.134Z,0.60
2023-01-13T01:03:55.155Z,0.90
2023-01-13T01:04:55.136Z,0.80
2023-01-13T01:05:55.132Z,0.80
2023-01-13T01:06:55.118Z,0.70
2023-01-13T01:07:55.097Z,0.70
2023-01-13T01:08:55.105Z,0.60
2023-01-13T01:09:55.088Z,0.80
2023-01-13T01:10:55.055Z,0.80
2023-01-13T01:11:55.081Z,1.00
2023-01-13T01:12:55.027Z,0.90
2023-01-13T01:13:55.054Z,0.80
2023-01-13T01:14:55.015Z,0.80
2023-01-13T01:15:55.013Z,0.70
2023-01-13T01:32:18.279Z,1.20
2023-01-13T01:33:18.249Z,0.90
2023-01-13T01:34:18.266Z,0.90
2023-01-13T01:35:18.212Z,0.60
2023-01-13T01:36:18.201Z,1.10
2023-01-13T01:37:18.204Z,0.80
2023-01-13T01:38:18.210Z,0.70
2023-01-13T01:39:18.176Z,0.90
2023-01-13T01:40:18.164Z,0.80
2023-01-13T01:41:18.152Z,1.20
2023-01-13T01:42:18.165Z,0.70
2023-01-13T01:43:18.132Z,0.70
2023-01-13T01:44:18.124Z,0.70
2023-01-13T01:45:18.100Z,1.20
2023-01-13T01:46:18.134Z,0.70
2023-01-13T01:47:18.096Z,0.80
2023-01-13T01:48:18.089Z,1.00
2023-01-13T01:49:18.111Z,0.90
2023-01-13T01:50:18.061Z,0.90
2023-01-13T01:51:18.049Z,0.90
2023-01-13T01:52:18.045Z,1.10
2023-01-13T01:53:18.017Z,0.80
2023-01-13T01:54:18.008Z,1.20
2023-01-13T01:55:18.019Z,1.00
2023-01-13T01:56:17.982Z,1.10
2023-01-13T01:57:17.970Z,1.20
2023-01-13T01:58:17.968Z,1.40
2023-01-13T01:59:17.966Z,1.00
2023-01-13T02:00:17.935Z,1.60
2023-01-13T02:01:18.067Z,1.70
2023-01-13T02:02:17.953Z,1.70
2023-01-13T02:03:17.905Z,1.50
2023-01-13T02:04:17.921Z,1.70
2023-01-13T02:05:17.916Z,1.70
2023-01-13T02:06:17.877Z,1.70
2023-01-13T02:07:17.860Z,1.70
2023-01-13T02:08:17.858Z,1.80
2023-01-13T02:09:17.866Z,1.50
2023-01-13T02:10:17.846Z,1.40
2023-01-13T02:11:17.816Z,1.60
2023-01-13T02:12:17.813Z,1.80
2023-01-13T02:13:17.813Z,1.60
2023-01-13T02:14:17.797Z,1.60
2023-01-13T02:15:17.784Z,1.70
2023-01-13T02:16:17.832Z,1.50
2023-01-13T02:17:17.751Z,1.50
2023-01-13T02:18:17.753Z,1.60
2023-01-13T02:19:17.736Z,2.00
2023-01-13T02:20:17.777Z,1.50
2023-01-13T02:21:17.720Z,1.50
2023-01-13T02:22:17.698Z,1.70
2023-01-13T02:23:17.710Z,1.90
2023-01-13T02:24:17.689Z,1.50
2023-01-13T02:25:17.676Z,1.60
2023-01-13T02:26:17.662Z,1.50
2023-01-13T02:27:17.661Z,1.60
2023-01-13T02:28:17.629Z,1.70
2023-01-13T02:29:17.615Z,1.70
2023-01-13T02:30:17.638Z,1.80
2023-01-13T02:31:17.675Z,1.50
2023-01-13T02:32:17.576Z,1.70
2023-01-13T02:33:17.676Z,1.70
2023-01-13T02:34:17.579Z,1.30
2023-01-13T02:35:17.548Z,1.70
2023-01-13T02:36:17.561Z,1.50
2023-01-13T02:37:17.546Z,1.50
2023-01-13T02:38:17.512Z,1.60
2023-01-13T02:39:17.536Z,1.60
2023-01-13T02:40:17.499Z,1.60
2023-01-13T02:41:17.476Z,1.90
2023-01-13T02:42:17.469Z,1.50
2023-01-13T02:43:17.460Z,1.80
2023-01-13T02:44:17.459Z,1.60
2023-01-13T02:45:17.433Z,1.80
2023-01-13T02:46:17.452Z,2.00
2023-01-13T02:47:17.423Z,1.70
2023-01-13T02:48:17.424Z,2.00
2023-01-13T02:49:17.391Z,2.30
2023-01-13T02:50:17.407Z,2.00
2023-01-13T02:51:17.412Z,2.30
2023-01-13T02:52:17.372Z,2.10
2023-01-13T02:53:17.348Z,2.20
2023-01-13T02:54:17.344Z,2.30
2023-01-13T02:55:17.335Z,2.30
2023-01-13T02:56:17.364Z,2.30
2023-01-13T02:57:17.306Z,2.50
2023-01-13T02:58:17.308Z,2.20
2023-01-13T02:59:17.276Z,1.70
2023-01-13T03:00:17.306Z,2.00
2023-01-13T03:01:17.431Z,1.90
2023-01-13T03:02:17.504Z,2.00
2023-01-13T03:03:17.250Z,2.10
2023-01-13T03:04:17.243Z,1.90
2023-01-13T03:05:17.270Z,2.20
2023-01-13T03:06:17.264Z,2.40
2023-01-13T03:07:17.232Z,2.40
2023-01-13T03:08:17.235Z,2.00
2023-01-13T03:09:17.199Z,2.20
2023-01-13T03:10:17.188Z,2.10
2023-01-13T03:11:17.183Z,2.20
2023-01-13T03:12:17.154Z,2.00
2023-01-13T03:13:17.149Z,2.10
2023-01-13T03:14:17.126Z,2.00
2023-01-13T03:15:17.119Z,2.20
2023-01-13T03:16:17.166Z,1.80
2023-01-13T03:17:17.120Z,1.90
2023-01-13T03:18:17.083Z,1.80
2023-01-13T03:19:17.071Z,1.90
2023-01-13T03:20:17.082Z,2.00
2023-01-13T03:21:17.067Z,2.00
2023-01-13T03:22:17.060Z,2.00
2023-01-13T03:23:17.043Z,1.70
2023-01-13T03:24:17.043Z,2.20
2023-01-13T03:25:17.011Z,2.10
2023-01-13T03:26:17.013Z,2.10
2023-01-13T03:27:17.015Z,1.80
2023-01-13T03:28:16.991Z,2.20
2023-01-13T03:29:16.954Z,2.80
2023-01-13T03:30:16.990Z,2.00
2023-01-13T03:31:16.955Z,1.90
2023-01-13T03:32:24.001Z,2.00
2023-01-13T03:33:16.925Z,2.00
2023-01-13T03:34:16.916Z,2.00
2023-01-13T03:35:16.889Z,2.00
2023-01-13T03:36:16.887Z,2.30
2023-01-13T03:37:16.881Z,2.10
2023-01-13T03:38:16.878Z,2.30
2023-01-13T03:39:16.888Z,2.40
2023-01-13T03:40:16.875Z,2.10
2023-01-13T03:41:16.851Z,3.00
2023-01-13T03:42:16.816Z,2.00
2023-01-13T03:43:16.813Z,2.30
2023-01-13T03:44:16.809Z,2.80
2023-01-13T03:45:16.785Z,2.40
2023-01-13T03:46:16.829Z,2.20
2023-01-13T03:47:16.805Z,2.20
2023-01-13T03:48:16.765Z,2.20
2023-01-13T03:49:16.766Z,2.60
2023-01-13T03:50:16.746Z,2.70
2023-01-13T03:51:16.743Z,2.70
2023-01-13T03:52:16.730Z,2.20
2023-01-13T03:53:16.695Z,2.30
2023-01-13T03:54:16.695Z,3.00
2023-01-13T03:55:16.668Z,2.30
2023-01-13T03:56:16.684Z,2.40
2023-01-13T03:57:16.650Z,2.60
2023-01-13T03:58:16.667Z,2.20
2023-01-13T03:59:16.646Z,2.60
2023-01-13T04:00:16.614Z,2.60
2023-01-13T04:01:16.747Z,3.00
2023-01-13T04:02:17.201Z,2.80
2023-01-13T04:03:16.602Z,2.60
2023-01-13T04:04:16.587Z,2.20
2023-01-13T04:05:16.571Z,2.10
2023-01-13T04:06:16.572Z,2.40
2023-01-13T04:07:16.536Z,2.30
2023-01-13T04:08:16.531Z,2.40
2023-01-13T04:09:16.531Z,2.20
2023-01-13T04:10:16.535Z,2.80
2023-01-13T04:11:16.497Z,3.30
2023-01-13T04:12:16.533Z,2.50
2023-01-13T04:13:16.507Z,2.90
2023-01-13T04:14:16.487Z,2.30
2023-01-13T04:15:16.462Z,2.60
2023-01-13T04:16:16.453Z,2.30
2023-01-13T04:17:16.436Z,2.20
2023-01-13T04:18:16.431Z,2.40
2023-01-13T04:19:16.451Z,2.50
2023-01-13T04:20:16.415Z,2.60
2023-01-13T04:21:16.414Z,2.20
2023-01-13T22:44:26.175Z,3.00
2023-01-13T22:45:25.874Z,3.20
2023-01-13T22:46:25.851Z,4.00
2023-01-13T22:47:25.824Z,3.50
2023-01-13T22:48:25.819Z,3.10
2023-01-13T22:49:25.793Z,3.60
2023-01-13T22:50:25.794Z,3.50
2023-01-13T22:51:25.799Z,3.30
2023-01-13T22:52:25.765Z,3.30
2023-01-13T22:53:25.764Z,3.30
2023-01-13T22:54:25.759Z,3.80
2023-01-13T22:55:25.726Z,2.80
2023-01-13T22:56:25.727Z,3.00
2023-01-13T22:57:25.721Z,2.90
2023-01-13T22:58:25.704Z,3.70
2023-01-13T22:59:25.695Z,3.40
2023-01-13T23:00:25.711Z,3.00
2023-01-13T23:01:25.732Z,2.90
2023-01-13T23:02:25.681Z,3.10
2023-01-13T23:03:25.661Z,2.90
2023-01-13T23:04:25.670Z,3.00
2023-01-13T23:05:25.634Z,2.90
2023-01-13T23:06:25.610Z,2.80
2023-01-13T23:07:25.608Z,3.20
2023-01-13T23:08:25.598Z,2.90
2023-01-13T23:09:25.576Z,2.90
2023-01-13T23:10:25.564Z,3.20
2023-01-13T23:11:25.567Z,2.50
2023-01-13T23:12:25.555Z,2.90
2023-01-13T23:13:25.534Z,2.70
2023-01-13T23:14:25.533Z,3.00
2023-01-13T23:15:25.508Z,3.20
2023-01-13T23:16:25.596Z,3.10
2023-01-13T23:17:25.487Z,2.90
2023-01-13T23:18:25.478Z,2.70
2023-01-13T23:19:25.477Z,2.80
2023-01-13T23:20:25.474Z,2.40
2023-01-13T23:21:25.456Z,2.30
2023-01-13T23:22:25.461Z,2.50
2023-01-13T23:23:25.442Z,2.60
2023-01-13T23:24:25.437Z,2.30
2023-01-13T23:25:25.397Z,3.20
2023-01-13T23:26:25.406Z,2.50
2023-01-13T23:27:25.386Z,2.20
2023-01-13T23:28:25.407Z,2.00
2023-01-13T23:29:25.362Z,1.70
2023-01-13T23:30:25.373Z,1.80
2023-01-13T23:31:25.331Z,1.90
2023-01-13T23:32:25.344Z,1.90
2023-01-13T23:33:25.336Z,1.60
2023-01-13T23:34:25.332Z,1.70
2023-01-13T23:35:25.296Z,1.50
2023-01-13T23:36:25.302Z,1.20
2023-01-13T23:37:25.266Z,1.40
2023-01-13T23:38:25.295Z,1.50
2023-01-13T23:39:25.252Z,1.50
2023-01-13T23:40:25.260Z,1.10
2023-01-13T23:41:25.222Z,1.20
2023-01-13T23:42:25.241Z,1.20
2023-01-13T23:43:25.205Z,1.10
2023-01-13T23:44:25.210Z,0.90
2023-01-13T23:45:25.178Z,0.90
2023-01-13T23:46:25.244Z,1.00
2023-01-13T23:47:25.169Z,1.00
2023-01-13T23:48:25.168Z,1.20
2023-01-13T23:49:25.155Z,0.60
2023-01-13T23:50:25.152Z,0.80
2023-01-13T23:51:25.132Z,1.10
2023-01-13T23:52:25.113Z,1.30
2023-01-13T23:53:25.107Z,0.80
2023-01-13T23:54:25.095Z,1.10
2023-01-13T23:55:25.082Z,1.00
2023-01-13T23:56:25.064Z,1.10
2023-01-13T23:57:25.058Z,1.00
2023-01-13T23:58:25.053Z,1.00
2023-01-13T23:59:25.032Z,0.80
